Time;durP1;ratioP1;P1;durP2;ratioP2;P2;SDS_P1;SDS_P2;PMS_P1;PMS_P2;Temp;Humidity;BMP_temperature;BMP_pressure;BME280_temperature;BME280_humidity;BME280_pressure;Samples;Min_cycle;Max_cycle;Signal;HPM_P1;HPM_P2
2024/03/05 00:01:37;;;;;;;45.70;22.60;;;8.00;99.90;;;9.77;67.72;97198.28;5029641;28;20043;-45
2024/03/05 00:04:05;;;;;;;41.80;20.97;;;7.90;99.90;;;9.75;67.57;97194.97;5017233;28;20045;-46
2024/03/05 00:06:33;;;;;;;48.40;24.30;;;7.90;99.90;;;9.77;67.66;97198.28;5011975;28;20047;-45
2024/03/05 00:09:00;;;;;;;44.40;21.17;;;7.90;99.90;;;9.78;67.51;97196.47;5018397;28;20047;-46
2024/03/05 00:11:28;;;;;;;39.27;20.70;;;7.90;99.90;;;9.77;67.80;97197.44;5028844;28;20033;-46
2024/03/05 00:13:57;;;;;;;44.10;20.87;;;7.90;99.90;;;9.75;67.60;97200.28;5022371;28;20052;-53
2024/03/05 00:16:24;;;;;;;49.00;22.63;;;7.90;99.90;;;9.79;67.56;97203.41;5011804;28;20047;-46
2024/03/05 00:18:53;;;;;;;40.43;22.47;;;7.90;99.90;;;9.77;67.79;97210.72;5014074;28;20043;-46
2024/03/05 00:21:21;;;;;;;48.83;23.30;;;7.90;99.90;;;9.78;67.54;97210.56;5029364;28;20044;-46
2024/03/05 00:23:49;;;;;;;44.60;21.50;;;7.90;99.90;;;9.81;67.46;97217.41;5028751;28;20036;-44
2024/03/05 00:26:18;;;;;;;44.47;20.33;;;8.00;99.90;;;9.79;67.61;97222.03;5011747;28;20082;-45
2024/03/05 00:28:45;;;;;;;47.90;22.13;;;7.90;99.90;;;9.78;67.73;97218.56;5011272;28;20053;-46
2024/03/05 00:31:13;;;;;;;44.23;23.13;;;7.90;99.90;;;9.79;67.30;97230.00;5028174;28;20811;-49
2024/03/05 00:33:41;;;;;;;46.83;21.30;;;7.90;99.90;;;9.78;67.61;97228.34;5029135;28;20500;-49
2024/03/05 00:36:09;;;;;;;41.17;22.60;;;7.90;99.90;;;9.77;67.71;97216.91;5015419;28;20488;-47
2024/03/05 00:38:37;;;;;;;50.57;22.13;;;7.90;99.90;;;9.79;67.62;97217.56;5011327;28;20054;-45
2024/03/05 00:41:06;;;;;;;45.63;21.60;;;7.90;99.90;;;9.80;67.67;97219.22;5021015;28;20043;-46
2024/03/05 00:43:33;;;;;;;47.43;22.73;;;8.00;99.90;;;9.79;67.62;97217.56;5028711;28;20041;-47
2024/03/05 00:46:01;;;;;;;46.70;22.17;;;7.90;99.90;;;9.78;67.61;97215.06;5020922;28;20051;-47
2024/03/05 00:48:29;;;;;;;49.67;23.13;;;7.90;99.90;;;9.83;67.48;97223.38;5011836;28;20094;-45
2024/03/05 00:50:56;;;;;;;49.20;23.20;;;8.00;99.90;;;9.85;67.22;97222.22;5016460;28;20070;-46
2024/03/05 00:53:24;;;;;;;43.13;20.97;;;8.10;99.90;;;9.91;67.56;97225.22;5029249;28;20041;-47
2024/03/05 00:55:51;;;;;;;41.30;20.40;;;8.10;99.90;;;9.91;67.16;97228.69;5026736;28;20393;-46
2024/03/05 00:58:20;;;;;;;47.70;22.73;;;8.10;99.90;;;9.92;67.28;97227.69;5011270;28;20043;-45
2024/03/05 01:00:48;;;;;;;45.33;22.20;;;8.20;99.90;;;9.96;67.47;97231.66;5011318;28;20050;-46
2024/03/05 01:03:16;;;;;;;45.13;22.43;;;8.20;99.90;;;10.00;67.50;97229.50;5003434;28;20047;-46
2024/03/05 01:05:43;;;;;;;44.83;22.07;;;8.10;99.90;;;10.02;67.08;97223.03;5009799;28;20047;-45
2024/03/05 01:08:12;;;;;;;39.73;21.23;;;8.20;99.90;;;10.06;67.50;97223.50;5012935;28;20050;-46
2024/03/05 01:10:41;;;;;;;46.47;22.50;;;8.30;99.90;;;10.11;67.36;97221.19;5011215;28;20058;-47
2024/03/05 01:13:09;;;;;;;46.30;21.53;;;8.30;99.90;;;10.12;67.21;97220.19;5024062;28;20054;-44
2024/03/05 01:15:36;;;;;;;40.47;21.20;;;8.30;99.90;;;10.12;67.15;97224.66;5028786;28;20044;-46
2024/03/05 01:18:04;;;;;;;50.80;22.77;;;8.30;99.90;;;10.11;66.73;97220.38;5017706;28;20066;-45
2024/03/05 01:20:32;;;;;;;42.50;21.00;;;8.40;99.90;;;10.11;66.65;97215.03;5010712;28;20335;-47
2024/03/05 01:22:59;;;;;;;46.17;23.90;;;8.30;99.90;;;10.11;66.87;97221.19;5017943;28;20047;-45
2024/03/05 01:25:27;;;;;;;47.90;21.60;;;8.30;99.90;;;10.11;66.90;97218.53;5031504;28;20047;-45
2024/03/05 01:27:55;;;;;;;44.30;21.40;;;8.30;99.90;;;10.14;66.73;97218.19;5026907;28;20040;-46
2024/03/05 01:30:22;;;;;;;45.27;20.67;;;8.30;99.90;;;10.14;66.84;97223.53;5014335;28;20046;-45
2024/03/05 01:32:52;;;;;;;44.07;21.53;;;8.30;99.90;;;10.15;66.87;97225.16;5013233;28;20414;-45
2024/03/05 01:35:21;;;;;;;42.73;21.17;;;8.30;99.90;;;10.15;66.78;97219.84;5014574;28;20046;-45
2024/03/05 01:37:49;;;;;;;45.30;20.43;;;8.30;99.90;;;10.14;66.36;97226.19;5014170;28;20058;-45
2024/03/05 01:40:19;;;;;;;47.93;22.47;;;8.40;99.90;;;10.14;66.43;97225.31;5012023;28;20501;-45
2024/03/05 01:42:47;;;;;;;44.23;20.47;;;8.30;99.90;;;10.13;66.56;97218.38;5014360;28;20054;-47
2024/03/05 01:45:18;;;;;;;45.13;21.23;;;8.30;99.90;;;10.13;66.47;97213.88;5029850;28;20047;-46
2024/03/05 01:47:48;;;;;;;44.83;23.17;;;8.30;99.90;;;10.17;66.61;97217.84;5031518;28;20060;-45
2024/03/05 01:50:16;;;;;;;42.90;21.60;;;8.30;99.90;;;10.19;66.50;97221.16;5014073;28;20049;-47
2024/03/05 01:52:44;;;;;;;46.87;21.73;;;8.30;99.90;;;10.16;66.27;97215.38;5014274;28;20043;-45
2024/03/05 01:55:15;;;;;;;45.70;22.00;;;8.30;99.90;;;10.14;66.07;97218.19;5027866;28;20061;-46
2024/03/05 01:57:46;;;;;;;44.23;21.03;;;8.30;99.90;;;10.14;66.27;97214.69;5031486;28;20056;-45
2024/03/05 02:00:20;;;;;;;44.43;21.60;;;8.30;99.90;;;10.15;66.15;97213.69;5014988;28;20043;-45
2024/03/05 02:02:49;;;;;;;42.73;20.97;;;8.30;99.90;;;10.15;66.18;97217.19;5012969;28;20043;-45
2024/03/05 02:05:17;;;;;;;42.20;20.67;;;8.40;99.90;;;10.17;66.42;97217.03;5029536;28;20036;-45
2024/03/05 02:07:46;;;;;;;35.63;19.27;;;8.40;99.90;;;10.19;66.17;97220.34;5031586;28;20037;-46
2024/03/05 02:10:14;;;;;;;40.70;21.03;;;8.40;99.90;;;10.16;66.27;97210.88;5015066;28;20050;-46
2024/03/05 02:12:41;;;;;;;42.07;20.87;;;8.40;99.90;;;10.19;66.07;97209.69;5014253;28;20051;-45
2024/03/05 02:15:12;;;;;;;45.77;21.57;;;8.40;99.90;;;10.19;65.87;97215.03;5023781;28;20057;-45
2024/03/05 02:17:45;;;;;;;38.23;21.20;;;8.40;99.90;;;10.20;66.04;97214.84;5040650;28;20050;-46
2024/03/05 02:20:13;;;;;;;40.57;20.63;;;8.40;99.90;;;10.19;66.10;97210.53;5027156;28;20051;-44
2024/03/05 02:22:42;;;;;;;45.63;22.37;;;8.40;99.90;;;10.18;65.91;97210.72;5031232;28;20044;-45
2024/03/05 02:25:10;;;;;;;34.47;18.40;;;8.30;99.90;;;10.18;66.25;97214.19;5019537;28;20052;-44
2024/03/05 02:27:40;;;;;;;39.07;19.70;;;8.30;99.90;;;10.19;66.15;97212.34;5013897;28;20046;-45
2024/03/05 02:30:11;;;;;;;39.13;18.93;;;8.30;99.90;;;10.18;66.21;97211.53;5021617;28;20069;-45
2024/03/05 02:32:41;;;;;;;43.83;21.00;;;8.30;99.90;;;10.20;65.96;97209.53;5029892;28;20048;-46
2024/03/05 02:35:10;;;;;;;46.20;22.30;;;8.20;99.90;;;10.19;66.02;97210.53;5020148;28;20044;-45
2024/03/05 02:37:40;;;;;;;39.97;19.63;;;8.30;99.90;;;10.19;65.88;97212.34;5013588;28;20054;-45
2024/03/05 02:40:10;;;;;;;39.27;20.10;;;8.20;99.90;;;10.18;66.13;97205.41;5020601;28;20517;-44
2024/03/05 02:42:38;;;;;;;40.60;20.97;;;8.30;99.90;;;10.18;65.67;97203.56;5046081;28;20404;-46
2024/03/05 02:45:07;;;;;;;37.53;19.87;;;8.30;99.90;;;10.17;65.82;97199.22;5022793;28;20041;-45
2024/03/05 02:47:41;;;;;;;39.87;21.27;;;8.20;99.90;;;10.16;65.60;97202.91;5011912;28;20043;-46
2024/03/05 02:50:11;;;;;;;42.70;21.20;;;8.20;99.90;;;10.17;65.61;97201.06;5016554;28;20386;-45
2024/03/05 02:52:39;;;;;;;37.93;20.40;;;8.10;99.90;;;10.17;65.51;97207.19;5030566;28;20063;-45
2024/03/05 02:55:11;;;;;;;45.97;20.20;;;8.20;99.90;;;10.17;65.92;97201.88;5021825;28;20052;-45
2024/03/05 02:57:43;;;;;;;47.10;22.07;;;8.20;99.90;;;10.18;65.97;97202.72;5011861;28;20051;-45
2024/03/05 03:00:18;;;;;;;48.23;22.47;;;8.20;99.90;;;10.19;65.55;97204.38;5024248;28;20074;-44
2024/03/05 03:02:50;;;;;;;46.30;22.50;;;8.30;99.90;;;10.21;65.58;97210.34;5030533;28;20049;-44
2024/03/05 03:05:21;;;;;;;41.83;21.57;;;8.20;99.90;;;10.21;65.51;97221.00;5014758;28;20054;-45
2024/03/05 03:07:51;;;;;;;43.93;20.87;;;8.20;99.90;;;10.18;65.82;97221.34;5011884;28;20043;-43
2024/03/05 03:10:19;;;;;;;40.30;20.77;;;8.20;99.90;;;10.18;65.67;97224.03;5029180;28;20415;-44
2024/03/05 03:12:48;;;;;;;42.57;19.87;;;8.20;99.90;;;10.17;65.25;97223.16;5030351;28;20039;-44
2024/03/05 03:15:20;;;;;;;41.87;21.70;;;8.20;99.90;;;10.15;65.73;97219.84;5014959;28;20043;-45
2024/03/05 03:17:48;;;;;;;40.57;22.40;;;8.10;99.90;;;10.14;65.53;97215.53;5012820;28;20047;-44
2024/03/05 03:20:16;;;;;;;44.17;20.07;;;8.20;99.90;;;10.14;65.44;97214.69;5026622;28;20052;-46
2024/03/05 03:22:46;;;;;;;37.67;18.60;;;8.20;99.90;;;10.14;65.58;97223.53;5029952;28;20041;-44
2024/03/05 03:25:14;;;;;;;40.70;21.77;;;8.20;99.90;;;10.13;65.42;97223.69;5017488;28;20048;-45
2024/03/05 03:27:42;;;;;;;40.33;19.10;;;8.20;99.90;;;10.12;65.37;97225.53;5011640;28;20038;-44
2024/03/05 03:30:17;;;;;;;37.33;18.73;;;8.10;99.90;;;10.11;65.71;97225.69;5021294;28;20501;-44
2024/03/05 03:32:46;;;;;;;39.27;19.03;;;8.10;99.90;;;10.10;65.35;97216.03;5028313;28;20049;-45
2024/03/05 03:35:15;;;;;;;38.47;18.73;;;8.10;99.90;;;10.09;65.80;97223.19;5017561;28;20468;-45
2024/03/05 03:37:43;;;;;;;39.10;19.67;;;8.10;99.90;;;10.07;65.33;97235.00;5012350;28;20054;-45
2024/03/05 03:40:23;;;;;;;34.20;17.53;;;8.00;99.90;;;10.06;65.78;97228.81;5021436;28;20057;-45
2024/03/05 03:42:51;;;;;;;38.83;17.53;;;8.00;99.90;;;10.04;65.48;97231.69;5029615;28;20049;-48
2024/03/05 03:45:20;;;;;;;37.17;19.53;;;8.00;99.90;;;10.04;65.56;97238.81;5013949;28;20043;-47
2024/03/05 03:47:47;;;;;;;36.53;17.77;;;8.00;99.90;;;10.06;65.44;97242.13;5010035;28;20498;-46
2024/03/05 03:50:16;;;;;;;38.23;18.33;;;8.10;99.90;;;10.05;65.49;97235.97;5022972;28;20047;-45
2024/03/05 03:52:43;;;;;;;35.70;17.57;;;8.10;99.90;;;10.06;65.33;97242.13;5029768;28;20040;-45
2024/03/05 03:55:11;;;;;;;44.70;19.73;;;8.10;99.90;;;10.06;65.67;97252.75;5020027;28;20464;-44
2024/03/05 03:57:39;;;;;;;40.63;17.73;;;8.10;99.90;;;10.05;65.61;97251.94;5012589;28;20264;-44
2024/03/05 04:00:07;;;;;;;42.43;18.57;;;8.10;99.90;;;10.05;65.25;97248.47;5018430;28;20114;-48
2024/03/05 04:02:36;;;;;;;35.80;19.67;;;8.00;99.90;;;10.07;65.32;97250.97;5029046;28;20047;-45
2024/03/05 04:05:05;;;;;;;37.97;18.43;;;8.10;99.90;;;10.07;65.54;97245.63;5024902;28;20044;-45
2024/03/05 04:07:33;;;;;;;41.27;19.27;;;8.10;99.90;;;10.09;65.37;97248.97;5010985;28;20035;-44
2024/03/05 04:10:01;;;;;;;37.97;19.77;;;8.20;99.90;;;10.11;65.28;97249.63;5013859;28;20043;-44
2024/03/05 04:12:29;;;;;;;39.53;19.00;;;8.20;99.90;;;10.12;65.30;97252.13;5030061;28;20048;-45
2024/03/05 04:14:57;;;;;;;40.07;19.00;;;8.20;99.90;;;10.12;65.22;97249.47;5044516;28;20617;-44
2024/03/05 04:17:24;;;;;;;39.63;20.80;;;8.30;99.90;;;10.12;65.33;97249.47;5029552;28;20049;-46
2024/03/05 04:19:52;;;;;;;35.50;18.77;;;8.30;99.90;;;10.13;65.40;97250.28;5029101;28;20044;-44
2024/03/05 04:22:19;;;;;;;41.37;18.50;;;8.20;99.90;;;10.14;65.58;97252.78;5014416;28;20050;-45
2024/03/05 04:24:55;;;;;;;45.13;20.27;;;8.20;99.90;;;10.17;65.58;97251.59;5011745;28;20050;-45
2024/03/05 04:27:24;;;;;;;40.63;19.03;;;8.20;99.90;;;10.16;65.24;97249.97;5025515;28;20036;-46
2024/03/05 04:29:53;;;;;;;46.50;22.93;;;8.30;99.90;;;10.14;65.54;97250.13;5026416;28;20044;-45
2024/03/05 04:32:21;;;;;;;35.57;18.17;;;8.30;99.90;;;10.13;65.11;97253.75;5012545;28;20049;-45
2024/03/05 04:35:00;;;;;;;40.23;20.03;;;8.30;99.90;;;10.12;65.21;97254.78;5011459;28;20051;-46
2024/03/05 04:37:30;;;;;;;38.37;20.13;;;8.30;99.90;;;10.14;65.40;97251.94;5004219;28;20057;-44
2024/03/05 04:39:58;;;;;;;41.17;20.83;;;8.40;99.90;;;10.14;65.40;97254.59;5010181;28;20058;-46
2024/03/05 04:42:26;;;;;;;34.27;17.27;;;8.30;99.90;;;10.15;65.24;97258.91;5002594;28;20065;-48
2024/03/05 04:44:54;;;;;;;32.07;19.07;;;8.30;99.90;;;10.14;65.01;97260.75;5011511;28;20046;-46
2024/03/05 04:47:21;;;;;;;38.33;18.40;;;8.30;99.90;;;10.14;65.37;97260.75;5026600;28;20040;-45
2024/03/05 04:49:49;;;;;;;34.13;18.40;;;8.30;99.90;;;10.13;65.42;97253.75;5028496;28;20091;-44
2024/03/05 04:52:18;;;;;;;42.87;19.20;;;8.30;99.90;;;10.13;65.28;97264.41;5016993;28;20559;-45
2024/03/05 04:54:45;;;;;;;38.50;16.90;;;8.40;99.90;;;10.13;65.05;97258.25;5011489;28;20051;-47
2024/03/05 04:57:13;;;;;;;36.10;19.03;;;8.40;99.90;;;10.14;65.50;97260.75;5019939;28;20047;-45
2024/03/05 04:59:41;;;;;;;38.13;19.03;;;8.40;99.90;;;10.11;65.36;97255.75;5027454;28;20088;-46
2024/03/05 05:02:09;;;;;;;36.80;18.50;;;8.40;99.90;;;10.12;65.19;97264.56;5022527;28;20033;-45
2024/03/05 05:04:41;;;;;;;37.63;18.93;;;8.40;99.90;;;10.14;65.30;97257.25;4993903;28;20042;-46
2024/03/05 05:07:08;;;;;;;34.97;17.80;;;8.40;99.90;;;10.13;64.93;97256.41;5016034;28;20062;-46
2024/03/05 05:09:37;;;;;;;34.80;17.53;;;8.40;99.90;;;10.15;65.41;97257.09;5028350;28;20041;-45
2024/03/05 05:12:04;;;;;;;36.70;17.90;;;8.30;99.90;;;10.16;65.18;97264.09;5024988;28;20041;-47
2024/03/05 05:14:32;;;;;;;35.83;18.23;;;8.30;99.90;;;10.15;65.26;97266.91;5011520;28;20051;-45
2024/03/05 05:17:05;;;;;;;34.67;18.40;;;8.30;99.90;;;10.13;65.47;97267.06;5013867;28;20091;-47
2024/03/05 05:19:33;;;;;;;38.97;18.33;;;8.30;99.90;;;10.12;65.18;97262.75;5027839;28;20044;-46
2024/03/05 05:22:00;;;;;;;38.80;18.40;;;8.40;99.90;;;10.11;65.19;97265.56;5027250;28;20100;-44
2024/03/05 05:24:28;;;;;;;37.17;18.30;;;8.40;99.90;;;10.07;65.18;97273.06;5003219;28;20046;-46
2024/03/05 05:26:55;;;;;;;36.80;18.70;;;8.30;99.90;;;9.97;65.10;97277.72;5010949;28;20039;-46
2024/03/05 05:29:24;;;;;;;39.90;19.47;;;8.10;99.90;;;9.92;64.90;97272.88;5024359;28;20041;-45
2024/03/05 05:32:07;;;;;;;36.70;18.80;;;8.10;99.90;;;9.83;65.04;97276.56;5023046;28;20051;-46
2024/03/05 05:34:36;;;;;;;36.10;20.27;;;8.00;99.90;;;9.84;65.00;97272.88;5010849;28;20388;-47
2024/03/05 05:37:04;;;;;;;38.50;18.60;;;8.00;99.90;;;9.84;65.55;97278.19;5010408;28;20055;-48
2024/03/05 05:39:32;;;;;;;34.27;18.40;;;8.00;99.90;;;9.79;65.33;97272.53;5028013;28;20044;-49
2024/03/05 05:42:00;;;;;;;35.37;17.53;;;8.00;99.90;;;9.78;65.39;97279.69;5027137;28;20056;-46
2024/03/05 05:44:29;;;;;;;39.07;19.80;;;7.90;99.90;;;9.78;65.72;97277.03;5002766;28;20038;-47
2024/03/05 05:46:57;;;;;;;41.23;19.53;;;7.90;99.90;;;9.80;65.65;97275.03;5010792;28;20043;-47
2024/03/05 05:49:25;;;;;;;39.03;18.07;;;7.90;99.90;;;9.81;65.23;97283.88;5026200;28;20037;-47
2024/03/05 05:51:53;;;;;;;36.20;19.03;;;7.90;99.90;;;9.74;65.69;97281.03;5028761;28;20103;-43
2024/03/05 05:54:21;;;;;;;38.83;20.23;;;7.80;99.90;;;9.75;65.87;97280.03;5015404;28;20064;-44
2024/03/05 05:56:49;;;;;;;46.20;21.27;;;7.80;99.90;;;9.79;65.84;97276.06;5010605;28;20043;-43
2024/03/05 05:59:18;;;;;;;41.37;19.47;;;8.00;99.90;;;9.85;65.98;97282.53;5020316;28;20043;-43
2024/03/05 06:01:46;;;;;;;46.93;29.23;;;8.10;99.90;;;9.93;65.69;97287.03;5028151;28;20525;-43
2024/03/05 06:04:15;;;;;;;37.87;20.30;;;8.10;99.90;;;9.93;65.85;97285.19;5020542;28;20116;-43
2024/03/05 06:06:43;;;;;;;31.93;18.83;;;8.10;99.90;;;9.97;65.36;97281.19;5010487;28;20490;-44
2024/03/05 06:09:11;;;;;;;35.77;19.53;;;8.10;99.90;;;10.00;65.75;97290.66;5015266;28;20110;-45
2024/03/05 06:11:39;;;;;;;31.13;17.90;;;8.20;99.90;;;10.04;65.51;97289.34;5031634;28;20403;-44
2024/03/05 06:14:06;;;;;;;33.00;18.43;;;8.20;99.90;;;10.07;65.53;97289.00;5028901;28;20373;-43
2024/03/05 06:16:34;;;;;;;34.83;16.67;;;8.20;99.90;;;10.07;65.52;97285.53;5013857;28;20043;-42
2024/03/05 06:19:03;;;;;;;30.70;16.50;;;8.20;99.90;;;10.07;65.42;97294.34;5013994;28;20050;-42
2024/03/05 06:21:30;;;;;;;35.50;17.30;;;8.20;99.90;;;10.06;65.19;97297.97;5006552;28;20042;-48
2024/03/05 06:23:59;;;;;;;33.90;17.43;;;8.20;99.90;;;10.06;65.16;97295.31;5013629;28;20043;-46
2024/03/05 06:26:27;;;;;;;31.47;16.67;;;8.20;99.90;;;10.03;65.12;97301.81;5029887;28;20492;-47
2024/03/05 06:28:55;;;;;;;31.33;18.23;;;8.20;99.90;;;9.97;65.29;97299.00;5037277;28;20049;-47
2024/03/05 06:31:23;;;;;;;30.83;19.00;;;8.10;99.90;;;9.99;65.20;97299.66;5018257;28;20041;-46
2024/03/05 06:33:52;;;;;;;35.43;18.00;;;8.10;99.90;;;9.97;65.50;97306.97;5011844;28;20081;-46
2024/03/05 06:36:22;;;;;;;35.63;17.13;;;8.00;99.90;;;9.96;65.30;97313.28;5023295;28;20057;-45
2024/03/05 06:38:50;;;;;;;30.63;17.50;;;8.10;99.90;;;9.97;65.33;97314.94;5030800;28;20041;-47
2024/03/05 06:41:18;;;;;;;37.47;18.33;;;8.10;99.90;;;9.98;65.17;97314.78;5021781;28;20044;-46
2024/03/05 06:43:47;;;;;;;33.10;16.63;;;8.10;99.90;;;9.98;65.11;97309.47;5013352;28;20046;-46
2024/03/05 06:46:17;;;;;;;33.03;16.23;;;8.10;99.90;;;9.97;65.02;97310.47;5020086;28;20046;-46
2024/03/05 06:48:47;;;;;;;30.50;16.10;;;8.10;99.90;;;9.97;65.47;97312.28;5030583;28;20150;-46
2024/03/05 06:51:31;;;;;;;31.83;16.27;;;8.10;99.90;;;9.97;65.47;97317.63;5023423;28;20051;-45
2024/03/05 06:56:45;;;;;;;32.20;16.17;;;8.10;99.90;;;9.93;65.15;97306.47;5007284;28;20050;-47
2024/03/05 06:59:13;;;;;;;37.57;16.60;;;8.00;99.90;;;9.91;65.24;97313.78;5017880;28;20055;-49
2024/03/05 07:01:41;;;;;;;37.60;17.47;;;8.00;99.90;;;9.95;65.39;97317.78;5030521;28;20048;-47
2024/03/05 07:04:09;;;;;;;32.77;18.50;;;8.00;99.90;;;9.97;65.35;97320.28;5028352;28;20503;-47
2024/03/05 07:06:36;;;;;;;36.27;18.73;;;8.10;99.90;;;9.99;65.42;97318.28;5013213;28;20047;-46
2024/03/05 07:09:04;;;;;;;32.00;17.30;;;8.10;99.90;;;9.98;65.27;97317.44;5053657;28;20254;-49
2024/03/05 07:11:33;;;;;;;30.73;17.43;;;8.10;99.90;;;9.99;65.43;97323.59;5004903;28;20505;-46
2024/03/05 07:14:01;;;;;;;31.80;15.50;;;8.10;99.90;;;10.00;65.51;97325.25;4987765;28;20050;-47
2024/03/05 07:16:31;;;;;;;33.30;16.50;;;8.10;99.90;;;9.96;65.39;97327.41;5003301;28;20040;-47
2024/03/05 07:19:01;;;;;;;35.30;18.00;;;8.10;99.90;;;9.96;65.46;97326.56;5028279;28;20055;-45
2024/03/05 07:21:30;;;;;;;34.73;18.63;;;8.10;99.90;;;9.98;65.29;97337.88;5014349;28;20065;-46
2024/03/05 07:23:58;;;;;;;33.17;18.90;;;8.10;99.90;;;9.96;65.52;97335.38;5012887;28;20050;-45
2024/03/05 07:26:28;;;;;;;32.87;17.43;;;8.10;99.90;;;9.96;65.45;97337.22;5026830;28;20040;-47
2024/03/05 07:28:56;;;;;;;30.10;16.00;;;8.10;99.90;;;9.97;65.70;97339.72;4997341;28;20405;-47
2024/03/05 07:31:25;;;;;;;33.23;16.70;;;8.10;99.90;;;10.01;65.32;97343.69;4990515;28;20046;-47
2024/03/05 07:33:54;;;;;;;35.07;17.50;;;8.20;99.90;;;9.98;65.37;97341.38;5038303;28;20057;-45
2024/03/05 07:36:22;;;;;;;36.17;18.63;;;8.10;99.90;;;9.97;65.27;97347.69;5022852;28;20054;-45
2024/03/05 07:38:50;;;;;;;30.87;16.73;;;8.10;99.90;;;10.00;65.71;97351.84;5029580;28;20143;-47
2024/03/05 07:41:18;;;;;;;32.87;16.17;;;8.10;99.90;;;10.02;65.59;97356.00;5022232;28;20291;-45
2024/03/05 07:44:03;;;;;;;37.40;16.10;;;8.20;99.90;;;9.95;65.37;97349.69;5013659;28;20050;-44
2024/03/05 07:46:34;;;;;;;36.20;16.80;;;8.10;99.90;;;9.78;65.93;97354.13;5012953;28;20066;-42
2024/03/05 07:49:04;;;;;;;27.23;14.00;;;8.00;99.90;;;9.45;66.11;97362.03;5012004;28;20049;-42
2024/03/05 07:51:32;;;;;;;20.87;11.70;;;7.70;99.90;;;9.51;66.14;97365.03;5029210;28;20040;-43
2024/03/05 07:54:12;;;;;;;23.43;12.20;;;7.70;99.90;;;9.50;66.23;97366.00;5026965;28;20055;-42
2024/03/05 07:56:40;;;;;;;22.93;12.80;;;7.70;99.90;;;9.49;66.02;97356.41;5012300;28;20050;-42
2024/03/05 07:59:08;;;;;;;17.23;8.97;;;7.70;99.90;;;9.50;66.09;97356.25;5011598;28;20039;-42
2024/03/05 08:01:37;;;;;;;18.83;10.37;;;7.70;99.90;;;9.48;66.21;97358.22;5028315;28;20504;-42
2024/03/05 08:04:05;;;;;;;18.93;10.73;;;7.70;99.90;;;9.47;66.04;97359.19;5029499;28;20396;-42
2024/03/05 08:06:33;;;;;;;16.53;9.70;;;7.70;99.90;;;9.42;66.23;97356.19;5029331;28;20492;-42
2024/03/05 08:09:00;;;;;;;18.37;9.07;;;7.70;99.90;;;9.33;66.29;97362.50;5027887;28;20044;-42
2024/03/05 08:11:28;;;;;;;17.07;9.73;;;7.50;99.90;;;9.29;66.64;97364.63;5015398;28;20054;-42
2024/03/05 08:13:56;;;;;;;18.83;10.17;;;7.50;99.90;;;9.32;67.20;97358.97;5011937;28;20054;-42
2024/03/05 08:16:24;;;;;;;14.77;9.07;;;7.50;99.90;;;9.37;66.89;97369.13;5022070;28;20058;-42
2024/03/05 08:18:53;;;;;;;17.70;11.00;;;7.60;99.90;;;9.36;66.82;97364.81;5028899;28;20044;-42
2024/03/05 08:21:21;;;;;;;21.27;9.70;;;7.50;99.90;;;9.31;66.76;97364.47;5020742;28;20504;-42
2024/03/05 08:23:52;;;;;;;18.47;9.00;;;7.50;99.90;;;9.36;66.69;97365.63;5012064;28;20039;-42
2024/03/05 08:26:45;;;;;;;16.60;10.10;;;7.60;99.90;;;9.37;66.74;97371.78;5005593;28;20045;-41
2024/03/05 08:29:13;;;;;;;17.37;9.33;;;7.60;99.90;;;9.43;66.69;97365.84;5012190;28;20053;-42
2024/03/05 08:31:40;;;;;;;18.13;9.97;;;7.70;99.90;;;9.38;67.06;97362.81;5029278;28;20056;-42
2024/03/05 08:34:08;;;;;;;13.80;8.73;;;7.60;99.90;;;9.42;66.76;97370.31;5027840;28;20054;-43
2024/03/05 08:36:36;;;;;;;16.43;9.50;;;7.70;99.90;;;9.42;66.94;97372.97;5004389;28;20043;-44
2024/03/05 08:39:12;;;;;;;19.17;9.00;;;7.70;99.90;;;9.35;67.21;97373.78;5011096;28;20058;-43
2024/03/05 08:41:40;;;;;;;14.37;8.37;;;7.60;99.90;;;9.22;66.97;97367.06;5011897;28;20050;-42
2024/03/05 08:44:08;;;;;;;14.60;10.00;;;7.50;99.90;;;9.31;66.92;97375.94;5011480;28;20039;-42
2024/03/05 08:46:36;;;;;;;16.50;8.77;;;7.50;99.90;;;9.12;67.49;97371.69;5018681;28;20497;-42
2024/03/05 08:49:06;;;;;;;12.53;7.77;;;7.50;99.90;;;9.13;67.32;97380.47;5010998;28;20046;-42
2024/03/05 08:51:37;;;;;;;11.73;6.33;;;7.50;99.90;;;9.15;67.44;97381.16;5010149;28;20080;-43
2024/03/05 08:54:08;;;;;;;9.50;6.07;;;7.50;99.90;;;9.10;67.54;97376.31;5029111;28;20052;-42
2024/03/05 08:56:36;;;;;;;11.17;5.90;;;7.40;99.90;;;9.09;67.31;97379.13;5029110;28;20041;-41
2024/03/05 08:59:06;;;;;;;9.97;5.97;;;7.40;99.90;;;9.11;67.15;97378.00;5028552;28;20056;-42
2024/03/05 09:01:34;;;;;;;9.70;5.87;;;7.50;99.90;;;9.13;67.10;97375.16;5012551;28;20421;-42
2024/03/05 09:04:09;;;;;;;9.37;5.90;;;7.40;99.90;;;9.13;67.47;97367.19;5011249;28;20540;-42
2024/03/05 09:06:37;;;;;;;9.03;5.23;;;7.50;99.90;;;9.19;67.40;97371.88;5002353;28;20043;-42
2024/03/05 09:09:05;;;;;;;7.30;5.00;;;7.50;99.90;;;9.23;67.14;97378.56;5009649;28;20054;-42
2024/03/05 09:11:35;;;;;;;8.13;5.90;;;7.50;99.90;;;9.28;67.15;97376.22;5026603;28;20037;-42
2024/03/05 09:14:02;;;;;;;8.30;5.57;;;7.70;99.90;;;9.18;67.19;97383.50;5017252;28;20073;-44
2024/03/05 09:16:30;;;;;;;10.43;6.23;;;7.60;99.90;;;9.22;67.11;97387.50;5024318;28;20510;-42
2024/03/05 09:18:58;;;;;;;13.63;7.43;;;7.60;99.90;;;9.20;67.14;97384.16;5028104;28;20048;-42
2024/03/05 09:21:26;;;;;;;12.20;7.60;;;7.50;99.90;;;9.24;67.29;97386.34;5018349;28;20045;-42
2024/03/05 09:23:54;;;;;;;13.20;8.10;;;7.50;99.90;;;9.26;67.19;97388.84;5011065;28;20201;-42
2024/03/05 09:26:42;;;;;;;13.87;7.77;;;7.60;99.90;;;9.29;66.93;97383.22;5021390;28;20083;-43
2024/03/05 09:29:12;;;;;;;15.03;8.53;;;7.60;99.90;;;9.37;67.08;97387.75;5028194;28;20052;-42
2024/03/05 09:31:42;;;;;;;11.53;7.90;;;7.70;99.90;;;9.36;67.05;97386.06;5004034;28;20047;-42
2024/03/05 09:34:10;;;;;;;13.20;7.93;;;7.70;99.90;;;9.37;67.23;97391.22;5010853;28;20055;-42
2024/03/05 09:36:39;;;;;;;15.80;9.37;;;7.70;99.90;;;9.24;67.40;97389.00;5010596;28;20043;-42
2024/03/05 09:39:09;;;;;;;14.40;9.10;;;7.70;99.90;;;9.27;67.35;97393.19;5010446;28;20055;-42
2024/03/05 09:41:44;;;;;;;13.70;8.83;;;7.60;99.90;;;9.40;67.52;97390.91;4978596;28;20044;-42
2024/03/05 09:44:12;;;;;;;15.70;10.00;;;7.70;99.90;;;9.30;67.50;97392.84;5028624;28;20048;-42
2024/03/05 09:46:45;;;;;;;15.83;9.40;;;7.70;99.90;;;9.24;67.52;97404.94;5014384;28;20042;-42
2024/03/05 09:49:15;;;;;;;17.42;9.23;;;7.70;99.90;;;9.26;67.88;97408.25;5014615;28;20047;-42
2024/03/05 09:51:51;;;;;;;15.30;9.30;;;7.70;99.90;;;9.32;67.58;97406.78;5031989;28;20389;-42
2024/03/05 09:54:18;;;;;;;14.70;9.30;;;7.70;99.90;;;9.25;67.83;97409.28;5027401;28;20048;-42
2024/03/05 09:56:50;;;;;;;13.63;8.13;;;7.70;99.90;;;9.27;67.57;97401.97;5014244;28;20043;-42
2024/03/05 09:59:17;;;;;;;13.37;8.43;;;7.70;99.90;;;9.29;67.33;97408.97;5004804;28;20423;-44
2024/03/05 10:01:49;;;;;;;13.27;8.50;;;7.70;99.90;;;9.30;66.97;97407.94;5013998;28;20062;-42
2024/03/05 10:04:17;;;;;;;13.03;8.27;;;7.70;99.90;;;9.23;67.50;97407.78;5015567;28;20054;-42
2024/03/05 10:06:49;;;;;;;12.13;7.80;;;7.70;99.90;;;9.30;67.24;97415.94;5031362;28;20415;-42
2024/03/05 10:09:17;;;;;;;12.57;7.67;;;7.80;99.90;;;9.23;67.43;97405.94;5028789;28;20044;-42
2024/03/05 10:11:47;;;;;;;12.13;7.50;;;7.70;99.90;;;9.10;67.21;97415.34;5013910;28;20042;-42
2024/03/05 10:14:15;;;;;;;8.60;6.70;;;7.60;99.90;;;9.11;67.24;97414.31;5014989;28;20051;-42
2024/03/05 10:16:43;;;;;;;9.47;6.30;;;7.60;99.90;;;9.07;67.18;97416.47;5010326;28;20043;-42
2024/03/05 10:19:18;;;;;;;9.83;6.27;;;7.50;99.90;;;9.10;67.04;97410.84;4969256;28;20043;-42
2024/03/05 10:21:47;;;;;;;9.10;6.53;;;7.60;99.90;;;9.16;67.34;97412.03;4982847;28;20541;-42
2024/03/05 10:24:28;;;;;;;11.40;6.83;;;7.60;99.90;;;9.19;67.18;97411.72;5015308;28;20054;-42
2024/03/05 10:26:55;;;;;;;10.00;6.40;;;7.70;99.90;;;9.26;66.89;97424.19;5030074;28;20037;-42
2024/03/05 10:29:34;;;;;;;8.77;6.47;;;7.70;99.90;;;9.31;66.83;97423.75;5021807;28;20440;-42